sensor_id;sensor_type;location;lat;lon;timestamp;pressure;altitude;pressure_sealevel;temperature;humidity
66887;BME280;67239;51.680;5.976;2024-01-30T00:00:34;102517.88;;;7.23;100.00
66887;BME280;67239;51.680;5.976;2024-01-30T00:03:01;102517.88;;;7.20;100.00
66887;BME280;67239;51.680;5.976;2024-01-30T00:05:28;102522.22;;;7.18;100.00
66887;BME280;67239;51.680;5.976;2024-01-30T00:07:55;102527.41;;;7.13;100.00
66887;BME280;67239;51.680;5.976;2024-01-30T00:10:22;102517.75;;;7.09;100.00
66887;BME280;67239;51.680;5.976;2024-01-30T00:12:50;102530.00;;;7.09;100.00
66887;BME280;67239;51.680;5.976;2024-01-30T00:15:17;102521.22;;;7.07;100.00
66887;BME280;67239;51.680;5.976;2024-01-30T00:17:45;102517.69;;;7.05;100.00
66887;BME280;67239;51.680;5.976;2024-01-30T00:20:12;102517.69;;;7.03;100.00
66887;BME280;67239;51.680;5.976;2024-01-30T00:22:39;102519.41;;;7.03;100.00
66887;BME280;67239;51.680;5.976;2024-01-30T00:25:07;102518.53;;;7.01;100.00
66887;BME280;67239;51.680;5.976;2024-01-30T00:27:34;102522.03;;;7.01;100.00
66887;BME280;67239;51.680;5.976;2024-01-30T00:30:02;102524.66;;;7.01;100.00
66887;BME280;67239;51.680;5.976;2024-01-30T00:32:29;102519.41;;;7.01;100.00
66887;BME280;67239;51.680;5.976;2024-01-30T00:34:56;102517.69;;;7.02;100.00
66887;BME280;67239;51.680;5.976;2024-01-30T00:37:24;102524.66;;;7.01;100.00
66887;BME280;67239;51.680;5.976;2024-01-30T00:39:51;102516.78;;;6.99;100.00
66887;BME280;67239;51.680;5.976;2024-01-30T00:42:18;102520.25;;;6.98;100.00
66887;BME280;67239;51.680;5.976;2024-01-30T00:44:46;102510.63;;;6.97;100.00
66887;BME280;67239;51.680;5.976;2024-01-30T00:47:13;102516.75;;;6.98;100.00
66887;BME280;67239;51.680;5.976;2024-01-30T00:49:40;102515.88;;;6.96;100.00
66887;BME280;67239;51.680;5.976;2024-01-30T00:52:07;102514.97;;;6.95;100.00
66887;BME280;67239;51.680;5.976;2024-01-30T00:54:34;102508.88;;;6.95;100.00
66887;BME280;67239;51.680;5.976;2024-01-30T00:57:01;102507.97;;;6.93;100.00
66887;BME280;67239;51.680;5.976;2024-01-30T00:59:29;102500.97;;;6.93;100.00
66887;BME280;67239;51.680;5.976;2024-01-30T01:01:56;102510.56;;;6.91;100.00
66887;BME280;67239;51.680;5.976;2024-01-30T01:04:23;102508.81;;;6.92;100.00
66887;BME280;67239;51.680;5.976;2024-01-30T01:06:50;102509.69;;;6.92;100.00
66887;BME280;67239;51.680;5.976;2024-01-30T01:09:17;102511.44;;;6.92;100.00
66887;BME280;67239;51.680;5.976;2024-01-30T01:11:44;102505.31;;;6.91;100.00
66887;BME280;67239;51.680;5.976;2024-01-30T01:14:11;102507.94;;;6.91;100.00
66887;BME280;67239;51.680;5.976;2024-01-30T01:16:39;102511.44;;;6.92;100.00
66887;BME280;67239;51.680;5.976;2024-01-30T01:19:06;102498.28;;;6.89;100.00
66887;BME280;67239;51.680;5.976;2024-01-30T01:21:33;102506.13;;;6.86;100.00
66887;BME280;67239;51.680;5.976;2024-01-30T01:24:00;102507.84;;;6.85;100.00
66887;BME280;67239;51.680;5.976;2024-01-30T01:26:27;102499.97;;;6.83;100.00
66887;BME280;67239;51.680;5.976;2024-01-30T01:28:54;102493.84;;;6.83;100.00
66887;BME280;67239;51.680;5.976;2024-01-30T01:31:22;102501.69;;;6.81;100.00
66887;BME280;67239;51.680;5.976;2024-01-30T01:33:51;102491.22;;;6.83;100.00
66887;BME280;67239;51.680;5.976;2024-01-30T01:36:19;102487.75;;;6.82;100.00
66887;BME280;67239;51.680;5.976;2024-01-30T01:38:46;102486.84;;;6.82;100.00
66887;BME280;67239;51.680;5.976;2024-01-30T01:41:13;102488.59;;;6.83;100.00
66887;BME280;67239;51.680;5.976;2024-01-30T01:43:40;102482.50;;;6.82;100.00
66887;BME280;67239;51.680;5.976;2024-01-30T01:46:08;102480.75;;;6.83;100.00
66887;BME280;67239;51.680;5.976;2024-01-30T01:48:36;102486.88;;;6.85;100.00
66887;BME280;67239;51.680;5.976;2024-01-30T01:51:04;102478.22;;;6.89;100.00
66887;BME280;67239;51.680;5.976;2024-01-30T01:53:32;102477.34;;;6.93;100.00
66887;BME280;67239;51.680;5.976;2024-01-30T01:55:59;102483.53;;;6.98;100.00
66887;BME280;67239;51.680;5.976;2024-01-30T01:58:27;102476.53;;;6.99;100.00
66887;BME280;67239;51.680;5.976;2024-01-30T02:00:56;102473.09;;;7.02;100.00
66887;BME280;67239;51.680;5.976;2024-01-30T02:03:25;102470.50;;;7.05;100.00
66887;BME280;67239;51.680;5.976;2024-01-30T02:05:53;102470.53;;;7.09;100.00
66887;BME280;67239;51.680;5.976;2024-01-30T02:08:23;102463.56;;;7.13;100.00
66887;BME280;67239;51.680;5.976;2024-01-30T02:10:51;102468.84;;;7.16;100.00
66887;BME280;67239;51.680;5.976;2024-01-30T02:13:18;102468.00;;;7.19;100.00
66887;BME280;67239;51.680;5.976;2024-01-30T02:15:49;102469.81;;;7.23;100.00
66887;BME280;67239;51.680;5.976;2024-01-30T02:18:19;102464.56;;;7.21;100.00
66887;BME280;67239;51.680;5.976;2024-01-30T02:20:48;102469.81;;;7.23;100.00
66887;BME280;67239;51.680;5.976;2024-01-30T02:23:15;102464.56;;;7.23;100.00
66887;BME280;67239;51.680;5.976;2024-01-30T02:25:43;102461.13;;;7.27;100.00
66887;BME280;67239;51.680;5.976;2024-01-30T02:28:13;102466.38;;;7.28;100.00
66887;BME280;67239;51.680;5.976;2024-01-30T02:30:42;102463.75;;;7.30;100.00
66887;BME280;67239;51.680;5.976;2024-01-30T02:33:09;102460.25;;;7.31;100.00
66887;BME280;67239;51.680;5.976;2024-01-30T02:35:37;102460.25;;;7.31;100.00
66887;BME280;67239;51.680;5.976;2024-01-30T02:38:04;102462.03;;;7.32;100.00
66887;BME280;67239;51.680;5.976;2024-01-30T02:40:32;102459.38;;;7.30;100.00
66887;BME280;67239;51.680;5.976;2024-01-30T02:43:00;102462.84;;;7.28;100.00
66887;BME280;67239;51.680;5.976;2024-01-30T02:45:29;102458.50;;;7.27;100.00
66887;BME280;67239;51.680;5.976;2024-01-30T02:47:56;102458.44;;;7.22;100.00
66887;BME280;67239;51.680;5.976;2024-01-30T02:50:23;102453.16;;;7.19;100.00
66887;BME280;67239;51.680;5.976;2024-01-30T02:52:50;102457.50;;;7.15;100.00
66887;BME280;67239;51.680;5.976;2024-01-30T02:55:17;102451.34;;;7.12;100.00
66887;BME280;67239;51.680;5.976;2024-01-30T02:57:45;102432.94;;;7.09;100.00
66887;BME280;67239;51.680;5.976;2024-01-30T03:00:13;102439.03;;;7.05;100.00
66887;BME280;67239;51.680;5.976;2024-01-30T03:02:41;102443.38;;;7.03;100.00
66887;BME280;67239;51.680;5.976;2024-01-30T03:05:08;102443.34;;;6.99;100.00
66887;BME280;67239;51.680;5.976;2024-01-30T03:07:35;102438.06;;;6.98;100.00
66887;BME280;67239;51.680;5.976;2024-01-30T03:10:04;102438.06;;;6.96;100.00
66887;BME280;67239;51.680;5.976;2024-01-30T03:12:33;102435.44;;;6.95;100.00
66887;BME280;67239;51.680;5.976;2024-01-30T03:15:00;102439.78;;;6.93;100.00
66887;BME280;67239;51.680;5.976;2024-01-30T03:17:27;102428.41;;;6.91;100.00
66887;BME280;67239;51.680;5.976;2024-01-30T03:19:54;102424.00;;;6.90;100.00
66887;BME280;67239;51.680;5.976;2024-01-30T03:22:22;102429.25;;;6.90;100.00
66887;BME280;67239;51.680;5.976;2024-01-30T03:24:49;102427.53;;;6.90;100.00
66887;BME280;67239;51.680;5.976;2024-01-30T03:27:16;102429.25;;;6.90;100.00
66887;BME280;67239;51.680;5.976;2024-01-30T03:29:43;102424.00;;;6.90;100.00
66887;BME280;67239;51.680;5.976;2024-01-30T03:32:10;102423.16;;;6.92;100.00
66887;BME280;67239;51.680;5.976;2024-01-30T03:34:37;102421.44;;;6.93;100.00
66887;BME280;67239;51.680;5.976;2024-01-30T03:37:05;102424.91;;;6.93;100.00
66887;BME280;67239;51.680;5.976;2024-01-30T03:39:32;102417.06;;;6.93;100.00
66887;BME280;67239;51.680;5.976;2024-01-30T03:41:59;102409.19;;;6.93;100.00
66887;BME280;67239;51.680;5.976;2024-01-30T03:44:26;102411.84;;;6.95;100.00
66887;BME280;67239;51.680;5.976;2024-01-30T03:46:54;102405.75;;;6.96;100.00
66887;BME280;67239;51.680;5.976;2024-01-30T03:49:21;102409.22;;;6.98;100.00
66887;BME280;67239;51.680;5.976;2024-01-30T03:51:48;102411.03;;;7.01;100.00
66887;BME280;67239;51.680;5.976;2024-01-30T03:54:15;102408.41;;;7.02;100.00
66887;BME280;67239;51.680;5.976;2024-01-30T03:56:43;102408.41;;;7.04;100.00
66887;BME280;67239;51.680;5.976;2024-01-30T03:59:10;102398.81;;;7.04;100.00
66887;BME280;67239;51.680;5.976;2024-01-30T04:01:37;102395.34;;;7.07;100.00
66887;BME280;67239;51.680;5.976;2024-01-30T04:04:04;102394.47;;;7.09;100.00
66887;BME280;67239;51.680;5.976;2024-01-30T04:06:31;102390.13;;;7.11;100.00
66887;BME280;67239;51.680;5.976;2024-01-30T04:08:58;102395.38;;;7.13;100.00
66887;BME280;67239;51.680;5.976;2024-01-30T04:11:25;102391.94;;;7.15;100.00
66887;BME280;67239;51.680;5.976;2024-01-30T04:13:52;102398.94;;;7.20;100.00
66887;BME280;67239;51.680;5.976;2024-01-30T04:16:20;102401.56;;;7.20;100.00
66887;BME280;67239;51.680;5.976;2024-01-30T04:18:51;102399.84;;;7.20;100.00
66887;BME280;67239;51.680;5.976;2024-01-30T04:21:20;102413.84;;;7.22;100.00
66887;BME280;67239;51.680;5.976;2024-01-30T04:23:50;102419.94;;;7.20;100.00
66887;BME280;67239;51.680;5.976;2024-01-30T04:26:18;102415.53;;;7.19;100.00
66887;BME280;67239;51.680;5.976;2024-01-30T04:28:45;102423.41;;;7.19;100.00
66887;BME280;67239;51.680;5.976;2024-01-30T04:31:12;102423.41;;;7.17;100.00
66887;BME280;67239;51.680;5.976;2024-01-30T04:33:39;102419.88;;;7.13;100.00
66887;BME280;67239;51.680;5.976;2024-01-30T04:36:08;102417.22;;;7.10;100.00
66887;BME280;67239;51.680;5.976;2024-01-30T04:38:38;102411.94;;;7.07;100.00
66887;BME280;67239;51.680;5.976;2024-01-30T04:41:05;102408.41;;;7.04;100.00
66887;BME280;67239;51.680;5.976;2024-01-30T04:43:33;102415.41;;;7.02;100.00
66887;BME280;67239;51.680;5.976;2024-01-30T04:46:00;102399.63;;;6.98;100.00
66887;BME280;67239;51.680;5.976;2024-01-30T04:48:27;102402.22;;;6.97;100.00
66887;BME280;67239;51.680;5.976;2024-01-30T04:50:54;102396.13;;;6.96;100.00
66887;BME280;67239;51.680;5.976;2024-01-30T04:53:23;102387.38;;;6.97;100.00
66887;BME280;67239;51.680;5.976;2024-01-30T04:55:50;102386.53;;;6.98;100.00
66887;BME280;67239;51.680;5.976;2024-01-30T04:58:17;102383.03;;;7.01;100.00
66887;BME280;67239;51.680;5.976;2024-01-30T05:00:44;102377.84;;;7.06;100.00
66887;BME280;67239;51.680;5.976;2024-01-30T05:03:13;102378.75;;;7.09;100.00
66887;BME280;67239;51.680;5.976;2024-01-30T05:05:40;102387.50;;;7.13;100.00
66887;BME280;67239;51.680;5.976;2024-01-30T05:08:07;102389.31;;;7.17;100.00
66887;BME280;67239;51.680;5.976;2024-01-30T05:10:34;102381.47;;;7.20;100.00
66887;BME280;67239;51.680;5.976;2024-01-30T05:13:02;102383.25;;;7.23;100.00
66887;BME280;67239;51.680;5.976;2024-01-30T05:15:29;102381.50;;;7.25;100.00
66887;BME280;67239;51.680;5.976;2024-01-30T05:17:56;102382.41;;;7.27;100.00
66887;BME280;67239;51.680;5.976;2024-01-30T05:20:23;102375.41;;;7.29;100.00
66887;BME280;67239;51.680;5.976;2024-01-30T05:22:50;102373.69;;;7.29;100.00
66887;BME280;67239;51.680;5.976;2024-01-30T05:25:17;102372.81;;;7.30;100.00
66887;BME280;67239;51.680;5.976;2024-01-30T05:27:45;102371.94;;;7.32;100.00
66887;BME280;67239;51.680;5.976;2024-01-30T05:30:12;102366.72;;;7.32;100.00
66887;BME280;67239;51.680;5.976;2024-01-30T05:32:39;102370.19;;;7.34;100.00
66887;BME280;67239;51.680;5.976;2024-01-30T05:35:07;102371.94;;;7.35;100.00
66887;BME280;67239;51.680;5.976;2024-01-30T05:37:37;102364.97;;;7.35;100.00
66887;BME280;67239;51.680;5.976;2024-01-30T05:40:04;102379.84;;;7.38;100.00
66887;BME280;67239;51.680;5.976;2024-01-30T05:42:32;102381.63;;;7.40;100.00
66887;BME280;67239;51.680;5.976;2024-01-30T05:44:59;102385.13;;;7.44;100.00
66887;BME280;67239;51.680;5.976;2024-01-30T05:47:26;102386.97;;;7.51;100.00
66887;BME280;67239;51.680;5.976;2024-01-30T05:49:53;102392.28;;;7.64;100.00
66887;BME280;67239;51.680;5.976;2024-01-30T05:52:20;102394.97;;;7.71;100.00
66887;BME280;67239;51.680;5.976;2024-01-30T05:54:47;102389.75;;;7.76;100.00
66887;BME280;67239;51.680;5.976;2024-01-30T05:57:15;102387.13;;;7.79;100.00
66887;BME280;67239;51.680;5.976;2024-01-30T05:59:42;102387.16;;;7.84;100.00
66887;BME280;67239;51.680;5.976;2024-01-30T06:02:11;102390.69;;;7.87;100.00
66887;BME280;67239;51.680;5.976;2024-01-30T06:04:38;102395.09;;;7.91;100.00
66887;BME280;67239;51.680;5.976;2024-01-30T06:07:06;102392.47;;;7.93;100.00
66887;BME280;67239;51.680;5.976;2024-01-30T06:09:33;102388.97;;;7.94;100.00
66887;BME280;67239;51.680;5.976;2024-01-30T06:12:00;102388.97;;;7.94;100.00
66887;BME280;67239;51.680;5.976;2024-01-30T06:14:27;102388.94;;;7.91;100.00
66887;BME280;67239;51.680;5.976;2024-01-30T06:16:55;102400.31;;;7.87;100.00
66887;BME280;67239;51.680;5.976;2024-01-30T06:19:22;102388.91;;;7.82;100.00
66887;BME280;67239;51.680;5.976;2024-01-30T06:21:49;102389.75;;;7.79;100.00
66887;BME280;67239;51.680;5.976;2024-01-30T06:24:16;102398.50;;;7.78;100.00
66887;BME280;67239;51.680;5.976;2024-01-30T06:26:43;102387.16;;;7.77;100.00
66887;BME280;67239;51.680;5.976;2024-01-30T06:29:11;102381.88;;;7.76;100.00
66887;BME280;67239;51.680;5.976;2024-01-30T06:31:41;102382.72;;;7.75;100.00
66887;BME280;67239;51.680;5.976;2024-01-30T06:34:09;102371.34;;;7.74;100.00
66887;BME280;67239;51.680;5.976;2024-01-30T06:36:38;102383.59;;;7.74;100.00
66887;BME280;67239;51.680;5.976;2024-01-30T06:39:06;102378.38;;;7.75;100.00
66887;BME280;67239;51.680;5.976;2024-01-30T06:41:34;102383.63;;;7.75;100.00
66887;BME280;67239;51.680;5.976;2024-01-30T06:44:02;102384.50;;;7.77;100.00
66887;BME280;67239;51.680;5.976;2024-01-30T06:46:30;102388.00;;;7.80;100.00
66887;BME280;67239;51.680;5.976;2024-01-30T06:48:58;102391.53;;;7.82;100.00
66887;BME280;67239;51.680;5.976;2024-01-30T06:51:25;102399.44;;;7.83;100.00
66887;BME280;67239;51.680;5.976;2024-01-30T06:53:52;102392.41;;;7.84;100.00
66887;BME280;67239;51.680;5.976;2024-01-30T06:56:19;102399.44;;;7.85;100.00
66887;BME280;67239;51.680;5.976;2024-01-30T06:58:48;102402.06;;;7.85;100.00
66887;BME280;67239;51.680;5.976;2024-01-30T07:01:16;102401.19;;;7.86;100.00
66887;BME280;67239;51.680;5.976;2024-01-30T07:03:44;102393.31;;;7.86;100.00
66887;BME280;67239;51.680;5.976;2024-01-30T07:06:11;102398.56;;;7.87;100.00
66887;BME280;67239;51.680;5.976;2024-01-30T07:08:38;102407.34;;;7.88;100.00
66887;BME280;67239;51.680;5.976;2024-01-30T07:11:06;102412.59;;;7.88;100.00
66887;BME280;67239;51.680;5.976;2024-01-30T07:13:34;102410.81;;;7.90;100.00
66887;BME280;67239;51.680;5.976;2024-01-30T07:16:02;102421.31;;;7.90;100.00
66887;BME280;67239;51.680;5.976;2024-01-30T07:18:29;102415.22;;;7.91;100.00
66887;BME280;67239;51.680;5.976;2024-01-30T07:20:56;102419.56;;;7.87;100.00
66887;BME280;67239;51.680;5.976;2024-01-30T07:23:23;102423.09;;;7.88;100.00
66887;BME280;67239;51.680;5.976;2024-01-30T07:25:51;102417.84;;;7.88;100.00
66887;BME280;67239;51.680;5.976;2024-01-30T07:28:19;102431.84;;;7.88;100.00
66887;BME280;67239;51.680;5.976;2024-01-30T07:30:47;102426.56;;;7.88;100.00
66887;BME280;67239;51.680;5.976;2024-01-30T07:33:15;102437.94;;;7.89;100.00
66887;BME280;67239;51.680;5.976;2024-01-30T07:35:45;102439.72;;;7.90;100.00
66887;BME280;67239;51.680;5.976;2024-01-30T07:38:12;102445.00;;;7.93;100.00
66887;BME280;67239;51.680;5.976;2024-01-30T07:40:39;102455.50;;;7.93;100.00
66887;BME280;67239;51.680;5.976;2024-01-30T07:43:07;102439.75;;;7.93;100.00
66887;BME280;67239;51.680;5.976;2024-01-30T07:45:35;102447.63;;;7.93;100.00
66887;BME280;67239;51.680;5.976;2024-01-30T07:48:02;102446.75;;;7.94;100.00
66887;BME280;67239;51.680;5.976;2024-01-30T07:50:29;102449.38;;;7.96;100.00
66887;BME280;67239;51.680;5.976;2024-01-30T07:52:57;102453.75;;;7.97;100.00
66887;BME280;67239;51.680;5.976;2024-01-30T07:55:26;102454.66;;;7.99;100.00
66887;BME280;67239;51.680;5.976;2024-01-30T07:57:57;102441.53;;;8.00;100.00
66887;BME280;67239;51.680;5.976;2024-01-30T08:00:26;102445.03;;;8.01;100.00
66887;BME280;67239;51.680;5.976;2024-01-30T08:02:53;102445.94;;;8.04;100.00
66887;BME280;67239;51.680;5.976;2024-01-30T08:05:24;102455.56;;;8.07;100.00
66887;BME280;67239;51.680;5.976;2024-01-30T08:07:51;102457.34;;;8.09;100.00
66887;BME280;67239;51.680;5.976;2024-01-30T08:10:19;102466.13;;;8.13;100.00
66887;BME280;67239;51.680;5.976;2024-01-30T08:12:47;102466.13;;;8.15;100.00
66887;BME280;67239;51.680;5.976;2024-01-30T08:15:14;102474.91;;;8.20;100.00
66887;BME280;67239;51.680;5.976;2024-01-30T08:17:41;102462.69;;;8.25;100.00
66887;BME280;67239;51.680;5.976;2024-01-30T08:20:09;102464.44;;;8.29;100.00
66887;BME280;67239;51.680;5.976;2024-01-30T08:22:39;102469.72;;;8.32;100.00
66887;BME280;67239;51.680;5.976;2024-01-30T08:25:07;102476.78;;;8.38;100.00
66887;BME280;67239;51.680;5.976;2024-01-30T08:27:35;102483.81;;;8.44;100.00
66887;BME280;67239;51.680;5.976;2024-01-30T08:30:08;102485.63;;;8.51;100.00
66887;BME280;67239;51.680;5.976;2024-01-30T08:32:35;102478.66;;;8.59;100.00
66887;BME280;67239;51.680;5.976;2024-01-30T08:35:03;102465.53;;;8.65;100.00
66887;BME280;67239;51.680;5.976;2024-01-30T08:37:31;102473.44;;;8.75;100.00
66887;BME280;67239;51.680;5.976;2024-01-30T08:39:58;102474.38;;;8.84;100.00
66887;BME280;67239;51.680;5.976;2024-01-30T08:42:25;102475.25;;;8.96;100.00
66887;BME280;67239;51.680;5.976;2024-01-30T08:44:52;102482.28;;;9.06;100.00
66887;BME280;67239;51.680;5.976;2024-01-30T08:47:20;102478.81;;;9.13;100.00
66887;BME280;67239;51.680;5.976;2024-01-30T08:49:47;102470.91;;;9.21;100.00
66887;BME280;67239;51.680;5.976;2024-01-30T08:52:14;102480.59;;;9.28;100.00
66887;BME280;67239;51.680;5.976;2024-01-30T08:54:41;102477.97;;;9.33;100.00
66887;BME280;67239;51.680;5.976;2024-01-30T08:57:09;102477.09;;;9.40;100.00
66887;BME280;67239;51.680;5.976;2024-01-30T08:59:36;102482.34;;;9.46;100.00
66887;BME280;67239;51.680;5.976;2024-01-30T09:02:03;102476.22;;;9.55;100.00
66887;BME280;67239;51.680;5.976;2024-01-30T09:04:39;102470.97;;;9.63;100.00
66887;BME280;67239;51.680;5.976;2024-01-30T09:07:08;102473.59;;;9.71;100.00
66887;BME280;67239;51.680;5.976;2024-01-30T09:09:38;102468.31;;;9.77;100.00
66887;BME280;67239;51.680;5.976;2024-01-30T09:12:09;102465.69;;;9.82;100.00
66887;BME280;67239;51.680;5.976;2024-01-30T09:14:37;102471.81;;;9.85;100.00
66887;BME280;67239;51.680;5.976;2024-01-30T09:17:05;102470.03;;;9.89;100.00
66887;BME280;67239;51.680;5.976;2024-01-30T09:19:32;102477.97;;;9.92;100.00
66887;BME280;67239;51.680;5.976;2024-01-30T09:22:00;102476.19;;;9.95;100.00
66887;BME280;67239;51.680;5.976;2024-01-30T09:24:28;102477.94;;;9.98;100.00
66887;BME280;67239;51.680;5.976;2024-01-30T09:26:55;102473.53;;;10.00;100.00
66887;BME280;67239;51.680;5.976;2024-01-30T09:29:22;102478.81;;;10.05;100.00
66887;BME280;67239;51.680;5.976;2024-01-30T09:31:49;102491.09;;;10.09;100.00
66887;BME280;67239;51.680;5.976;2024-01-30T09:34:16;102485.84;;;10.12;100.00
66887;BME280;67239;51.680;5.976;2024-01-30T09:36:44;102485.81;;;10.18;100.00
66887;BME280;67239;51.680;5.976;2024-01-30T09:39:11;102491.06;;;10.23;100.00
66887;BME280;67239;51.680;5.976;2024-01-30T09:41:45;102487.56;;;10.27;100.00
66887;BME280;67239;51.680;5.976;2024-01-30T09:44:25;102498.94;;;10.34;100.00
66887;BME280;67239;51.680;5.976;2024-01-30T09:46:55;102494.59;;;10.39;100.00
66887;BME280;67239;51.680;5.976;2024-01-30T09:49:25;102492.78;;;10.47;100.00
66887;BME280;67239;51.680;5.976;2024-01-30T09:51:54;102488.38;;;10.57;100.00
66887;BME280;67239;51.680;5.976;2024-01-30T09:54:23;102498.00;;;10.64;100.00
66887;BME280;67239;51.680;5.976;2024-01-30T09:56:50;102494.44;;;10.71;100.00
66887;BME280;67239;51.680;5.976;2024-01-30T09:59:17;102491.81;;;10.78;100.00
66887;BME280;67239;51.680;5.976;2024-01-30T10:01:44;102497.06;;;10.82;100.00
66887;BME280;67239;51.680;5.976;2024-01-30T10:04:12;102505.81;;;10.86;100.00
66887;BME280;67239;51.680;5.976;2024-01-30T10:06:40;102505.81;;;10.87;100.00
66887;BME280;67239;51.680;5.976;2024-01-30T10:09:07;102502.28;;;10.88;100.00
66887;BME280;67239;51.680;5.976;2024-01-30T10:11:36;102496.13;;;10.90;100.00
66887;BME280;67239;51.680;5.976;2024-01-30T10:14:03;102504.03;;;10.90;100.00
66887;BME280;67239;51.680;5.976;2024-01-30T10:16:30;102496.09;;;10.91;100.00
66887;BME280;67239;51.680;5.976;2024-01-30T10:18:58;102491.72;;;10.93;100.00
66887;BME280;67239;51.680;5.976;2024-01-30T10:21:25;102507.53;;;10.96;100.00
66887;BME280;67239;51.680;5.976;2024-01-30T10:23:52;102501.34;;;11.00;100.00
66887;BME280;67239;51.680;5.976;2024-01-30T10:26:20;102503.97;;;11.03;100.00
66887;BME280;67239;51.680;5.976;2024-01-30T10:28:48;102503.03;;;11.11;100.00
66887;BME280;67239;51.680;5.976;2024-01-30T10:31:18;102495.97;;;11.16;100.00
66887;BME280;67239;51.680;5.976;2024-01-30T10:33:46;102508.25;;;11.20;100.00
66887;BME280;67239;51.680;5.976;2024-01-30T10:36:14;102508.25;;;11.23;100.00
66887;BME280;67239;51.680;5.976;2024-01-30T10:38:47;102502.03;;;11.30;100.00
66887;BME280;67239;51.680;5.976;2024-01-30T10:41:24;102504.59;;;11.40;100.00
66887;BME280;67239;51.680;5.976;2024-01-30T10:44:08;102515.13;;;11.47;100.00
66887;BME280;67239;51.680;5.976;2024-01-30T10:46:38;102512.50;;;11.49;100.00
66887;BME280;67239;51.680;5.976;2024-01-30T10:49:06;102507.19;;;11.47;100.00
66887;BME280;67239;51.680;5.976;2024-01-30T10:51:34;102508.97;;;11.47;100.00
66887;BME280;67239;51.680;5.976;2024-01-30T10:54:06;102510.72;;;11.46;100.00
66887;BME280;67239;51.680;5.976;2024-01-30T10:56:34;102509.91;;;11.41;100.00
66887;BME280;67239;51.680;5.976;2024-01-30T10:59:02;102512.56;;;11.37;100.00
66887;BME280;67239;51.680;5.976;2024-01-30T11:01:30;102508.16;;;11.37;100.00
66887;BME280;67239;51.680;5.976;2024-01-30T11:03:58;102514.28;;;11.42;100.00
66887;BME280;67239;51.680;5.976;2024-01-30T11:06:25;102519.56;;;11.42;100.00
66887;BME280;67239;51.680;5.976;2024-01-30T11:09:03;102515.13;;;11.47;100.00
66887;BME280;67239;51.680;5.976;2024-01-30T11:11:57;102508.88;;;11.61;100.00
66887;BME280;67239;51.680;5.976;2024-01-30T11:14:31;102498.16;;;11.76;100.00
66887;BME280;67239;51.680;5.976;2024-01-30T11:16:59;102505.97;;;11.89;100.00
66887;BME280;67239;51.680;5.976;2024-01-30T11:19:30;102511.25;;;11.92;100.00
66887;BME280;67239;51.680;5.976;2024-01-30T11:21:59;102509.47;;;11.92;99.55
66887;BME280;67239;51.680;5.976;2024-01-30T11:24:27;102515.66;;;11.90;99.34
66887;BME280;67239;51.680;5.976;2024-01-30T11:27:02;102512.16;;;11.89;99.71
66887;BME280;67239;51.680;5.976;2024-01-30T11:29:34;102515.63;;;11.93;99.71
66887;BME280;67239;51.680;5.976;2024-01-30T11:32:02;102515.59;;;12.02;99.67
66887;BME280;67239;51.680;5.976;2024-01-30T11:34:29;102514.63;;;12.09;99.84
66887;BME280;67239;51.680;5.976;2024-01-30T11:36:59;102505.75;;;12.15;99.39
66887;BME280;67239;51.680;5.976;2024-01-30T11:39:30;102508.28;;;12.24;98.46
66887;BME280;67239;51.680;5.976;2024-01-30T11:41:58;102503.81;;;12.34;98.40
66887;BME280;67239;51.680;5.976;2024-01-30T11:44:25;102505.50;;;12.38;98.39
66887;BME280;67239;51.680;5.976;2024-01-30T11:46:52;102507.28;;;12.36;98.11
66887;BME280;67239;51.680;5.976;2024-01-30T11:49:20;102495.88;;;12.34;97.84
66887;BME280;67239;51.680;5.976;2024-01-30T11:51:48;102509.13;;;12.31;97.86
66887;BME280;67239;51.680;5.976;2024-01-30T11:54:16;102505.63;;;12.26;97.23
66887;BME280;67239;51.680;5.976;2024-01-30T11:56:43;102501.31;;;12.20;96.99
66887;BME280;67239;51.680;5.976;2024-01-30T11:59:11;102503.94;;;12.19;96.86
66887;BME280;67239;51.680;5.976;2024-01-30T12:01:38;102498.69;;;12.17;96.82
66887;BME280;67239;51.680;5.976;2024-01-30T12:04:07;102501.25;;;12.23;96.72
66887;BME280;67239;51.680;5.976;2024-01-30T12:06:37;102497.66;;;12.29;96.83
66887;BME280;67239;51.680;5.976;2024-01-30T12:09:06;102502.97;;;12.31;96.60
66887;BME280;67239;51.680;5.976;2024-01-30T12:11:47;102501.13;;;12.36;95.61
66887;BME280;67239;51.680;5.976;2024-01-30T12:14:16;102505.47;;;12.41;95.44
66887;BME280;67239;51.680;5.976;2024-01-30T12:16:43;102513.31;;;12.49;94.17
66887;BME280;67239;51.680;5.976;2024-01-30T12:19:10;102512.31;;;12.60;93.55
66887;BME280;67239;51.680;5.976;2024-01-30T12:21:38;102521.09;;;12.63;93.62
66887;BME280;67239;51.680;5.976;2024-01-30T12:24:05;102518.41;;;12.68;92.58
66887;BME280;67239;51.680;5.976;2024-01-30T12:26:34;102513.94;;;12.71;91.50
66887;BME280;67239;51.680;5.976;2024-01-30T12:29:03;102513.91;;;12.74;90.31
66887;BME280;67239;51.680;5.976;2024-01-30T12:31:32;102515.66;;;12.76;88.48
66887;BME280;67239;51.680;5.976;2024-01-30T12:34:00;102527.13;;;12.74;88.02
66887;BME280;67239;51.680;5.976;2024-01-30T12:36:29;102522.69;;;12.77;88.09
66887;BME280;67239;51.680;5.976;2024-01-30T12:38:58;102520.03;;;12.78;88.57
66887;BME280;67239;51.680;5.976;2024-01-30T12:41:25;102519.16;;;12.76;85.75
66887;BME280;67239;51.680;5.976;2024-01-30T12:43:57;102527.19;;;12.68;84.86
66887;BME280;67239;51.680;5.976;2024-01-30T12:46:28;102530.84;;;12.60;85.17
66887;BME280;67239;51.680;5.976;2024-01-30T12:48:56;102533.53;;;12.55;84.72
66887;BME280;67239;51.680;5.976;2024-01-30T12:51:23;102536.19;;;12.55;84.29